메인 페이지
METAR-TAF:

METAR-TAF

공항 :

애들레이드 공항

애들레이드, 오스트레일리아

위도: 34-56S, 경도: 138-31E, 고도: 6m

현재 날씨관측

예보는 36분 전, 04:30시(UTC)에 발표되었습니다.
남서19kt
온도 20°C
습도 43%
기압 1022 hPa
시정 10km 이상
1500m 미만 상공 구름 및 적란운 없음

METAR: YPAD 150430Z 23019KT CAVOK 20/07 Q1022 NOSIG

시각: 15:36 (05:06 UTC)

예보

예보는 2 시간 21분 전, 02:45시(UTC)에 발표되었습니다.
예보 대상 시간: 15일 02시부터 16일 06시까지 (UTC)
남서14kt
시정 10km 이상
1500m 미만 상공 구름 및 적란운 없음
15일 0800시부터 (UTC)
남동10kt
시정 10km 이상
1500m 미만 상공 구름 및 적란운 없음
15일 2200시부터 (UTC)
남남서8kt
시정 10km 이상
1500m 미만 상공 구름 및 적란운 없음
16일 0200시부터 (UTC)
16kt
시정 10km 이상
1500m 미만 상공 구름 및 적란운 없음

TAF: YPAD 150245Z 1502/1606 23014KT CAVOK FM150800 14010KT CAVOK FM152200 21008KT CAVOK FM160200 18016KT CAVOK

4,000개 이상의 공항 관측 자료 및 예보 (METAR 및 TAF 보고).

지도상에서 검색 가능한 기상관측소가 노란 점과 빨간 점으로 표시되어 있습니다.

기상관측소 명을 보려면 표시 위로 마우스를 이동하세요.

날씨 관측과 예보를 보려면 클릭하세요.

지도 변경 : 확대하려면 엑스 표시가 있는 녹색 버튼, 축소하려면 빼기 표시가 있는 녹색 버튼, 다음 페이지의 지도를 보려면 녹색 화살표를 클릭하세요.


METAR-TAF: